sensor_id;sensor_type;location;lat;lon;timestamp;P1;durP1;ratioP1;P2;durP2;ratioP2
20441;SDS011;10380;52.102;20.614;2022-07-22T00:00:41;6.85;;;4.93;;
20441;SDS011;10380;52.102;20.614;2022-07-22T00:03:09;9.98;;;4.60;;
20441;SDS011;10380;52.102;20.614;2022-07-22T00:05:35;7.80;;;4.25;;
20441;SDS011;10380;52.102;20.614;2022-07-22T00:08:03;6.32;;;4.63;;
20441;SDS011;10380;52.102;20.614;2022-07-22T00:10:30;8.75;;;4.40;;
20441;SDS011;10380;52.102;20.614;2022-07-22T00:12:57;7.97;;;4.38;;
20441;SDS011;10380;52.102;20.614;2022-07-22T00:15:25;8.40;;;4.85;;
20441;SDS011;10380;52.102;20.614;2022-07-22T00:17:52;6.72;;;4.57;;
20441;SDS011;10380;52.102;20.614;2022-07-22T00:20:19;8.48;;;4.30;;
20441;SDS011;10380;52.102;20.614;2022-07-22T00:22:46;6.32;;;4.07;;
20441;SDS011;10380;52.102;20.614;2022-07-22T00:25:13;7.55;;;4.15;;
20441;SDS011;10380;52.102;20.614;2022-07-22T00:27:40;7.97;;;4.03;;
20441;SDS011;10380;52.102;20.614;2022-07-22T00:30:08;7.78;;;4.43;;
20441;SDS011;10380;52.102;20.614;2022-07-22T00:32:35;6.75;;;4.13;;
20441;SDS011;10380;52.102;20.614;2022-07-22T00:35:02;6.18;;;4.10;;
20441;SDS011;10380;52.102;20.614;2022-07-22T00:37:30;8.75;;;4.13;;
20441;SDS011;10380;52.102;20.614;2022-07-22T00:39:57;6.10;;;4.20;;
20441;SDS011;10380;52.102;20.614;2022-07-22T00:42:24;5.38;;;4.25;;
20441;SDS011;10380;52.102;20.614;2022-07-22T00:44:53;7.30;;;4.32;;
20441;SDS011;10380;52.102;20.614;2022-07-22T00:47:21;6.28;;;3.92;;
20441;SDS011;10380;52.102;20.614;2022-07-22T00:49:48;7.22;;;3.90;;
20441;SDS011;10380;52.102;20.614;2022-07-22T00:52:15;6.60;;;4.32;;
20441;SDS011;10380;52.102;20.614;2022-07-22T00:54:42;9.10;;;4.63;;
20441;SDS011;10380;52.102;20.614;2022-07-22T00:57:09;5.65;;;4.53;;
20441;SDS011;10380;52.102;20.614;2022-07-22T00:59:36;8.77;;;3.70;;
20441;SDS011;10380;52.102;20.614;2022-07-22T01:02:03;6.95;;;4.07;;
20441;SDS011;10380;52.102;20.614;2022-07-22T01:04:31;8.98;;;4.03;;
20441;SDS011;10380;52.102;20.614;2022-07-22T01:06:58;6.22;;;3.90;;
20441;SDS011;10380;52.102;20.614;2022-07-22T01:09:25;7.35;;;4.32;;
20441;SDS011;10380;52.102;20.614;2022-07-22T01:11:52;7.72;;;4.32;;
20441;SDS011;10380;52.102;20.614;2022-07-22T01:14:20;5.72;;;4.22;;
20441;SDS011;10380;52.102;20.614;2022-07-22T01:16:47;5.68;;;4.50;;
20441;SDS011;10380;52.102;20.614;2022-07-22T01:19:15;6.25;;;3.97;;
20441;SDS011;10380;52.102;20.614;2022-07-22T01:21:43;14.20;;;4.25;;
20441;SDS011;10380;52.102;20.614;2022-07-22T01:24:10;6.75;;;4.30;;
20441;SDS011;10380;52.102;20.614;2022-07-22T01:26:37;7.07;;;4.07;;
20441;SDS011;10380;52.102;20.614;2022-07-22T01:29:04;7.88;;;4.30;;
20441;SDS011;10380;52.102;20.614;2022-07-22T01:31:33;6.03;;;3.95;;
20441;SDS011;10380;52.102;20.614;2022-07-22T01:34:00;7.30;;;4.28;;
20441;SDS011;10380;52.102;20.614;2022-07-22T01:36:27;8.43;;;4.90;;
20441;SDS011;10380;52.102;20.614;2022-07-22T01:38:54;19.08;;;14.32;;
20441;SDS011;10380;52.102;20.614;2022-07-22T01:41:23;12.63;;;10.88;;
20441;SDS011;10380;52.102;20.614;2022-07-22T01:43:50;21.83;;;10.90;;
20441;SDS011;10380;52.102;20.614;2022-07-22T01:46:17;25.50;;;9.77;;
20441;SDS011;10380;52.102;20.614;2022-07-22T01:48:45;7.90;;;5.68;;
20441;SDS011;10380;52.102;20.614;2022-07-22T01:51:12;14.27;;;5.60;;
20441;SDS011;10380;52.102;20.614;2022-07-22T01:53:39;11.73;;;5.68;;
20441;SDS011;10380;52.102;20.614;2022-07-22T01:56:06;6.50;;;4.72;;
20441;SDS011;10380;52.102;20.614;2022-07-22T01:58:34;6.43;;;4.15;;
20441;SDS011;10380;52.102;20.614;2022-07-22T02:01:06;7.00;;;4.22;;
20441;SDS011;10380;52.102;20.614;2022-07-22T02:03:34;6.20;;;4.20;;
20441;SDS011;10380;52.102;20.614;2022-07-22T02:06:01;6.88;;;4.60;;
20441;SDS011;10380;52.102;20.614;2022-07-22T02:08:29;4.85;;;3.25;;
20441;SDS011;10380;52.102;20.614;2022-07-22T02:10:56;6.07;;;4.22;;
20441;SDS011;10380;52.102;20.614;2022-07-22T02:13:23;6.15;;;3.78;;
20441;SDS011;10380;52.102;20.614;2022-07-22T02:15:50;7.45;;;3.60;;
20441;SDS011;10380;52.102;20.614;2022-07-22T02:18:18;5.80;;;4.05;;
20441;SDS011;10380;52.102;20.614;2022-07-22T02:20:45;8.60;;;4.28;;
20441;SDS011;10380;52.102;20.614;2022-07-22T02:23:13;5.65;;;3.75;;
20441;SDS011;10380;52.102;20.614;2022-07-22T02:25:41;6.45;;;4.22;;
20441;SDS011;10380;52.102;20.614;2022-07-22T02:28:08;7.47;;;4.13;;
20441;SDS011;10380;52.102;20.614;2022-07-22T02:30:35;9.10;;;4.15;;
20441;SDS011;10380;52.102;20.614;2022-07-22T02:33:03;6.88;;;4.47;;
20441;SDS011;10380;52.102;20.614;2022-07-22T02:35:31;8.30;;;4.53;;
20441;SDS011;10380;52.102;20.614;2022-07-22T02:37:58;7.10;;;4.55;;
20441;SDS011;10380;52.102;20.614;2022-07-22T02:40:27;5.68;;;4.82;;
20441;SDS011;10380;52.102;20.614;2022-07-22T02:42:55;11.05;;;5.03;;
20441;SDS011;10380;52.102;20.614;2022-07-22T02:45:22;8.15;;;4.00;;
20441;SDS011;10380;52.102;20.614;2022-07-22T02:47:51;9.35;;;4.68;;
20441;SDS011;10380;52.102;20.614;2022-07-22T02:50:21;8.27;;;4.55;;
20441;SDS011;10380;52.102;20.614;2022-07-22T02:52:49;8.65;;;5.22;;
20441;SDS011;10380;52.102;20.614;2022-07-22T02:55:16;9.50;;;4.50;;
20441;SDS011;10380;52.102;20.614;2022-07-22T02:57:43;10.82;;;4.35;;
20441;SDS011;10380;52.102;20.614;2022-07-22T03:00:12;7.80;;;4.13;;
20441;SDS011;10380;52.102;20.614;2022-07-22T03:02:40;8.57;;;4.80;;
20441;SDS011;10380;52.102;20.614;2022-07-22T03:05:07;8.65;;;4.47;;
20441;SDS011;10380;52.102;20.614;2022-07-22T03:07:34;5.90;;;3.85;;
20441;SDS011;10380;52.102;20.614;2022-07-22T03:10:02;8.45;;;4.80;;
20441;SDS011;10380;52.102;20.614;2022-07-22T03:12:29;10.18;;;5.05;;
20441;SDS011;10380;52.102;20.614;2022-07-22T03:14:57;7.53;;;5.40;;
20441;SDS011;10380;52.102;20.614;2022-07-22T03:17:25;5.63;;;4.65;;
20441;SDS011;10380;52.102;20.614;2022-07-22T03:19:51;12.18;;;4.80;;
20441;SDS011;10380;52.102;20.614;2022-07-22T03:22:18;9.50;;;4.53;;
20441;SDS011;10380;52.102;20.614;2022-07-22T03:24:45;11.35;;;4.60;;
20441;SDS011;10380;52.102;20.614;2022-07-22T03:27:12;5.95;;;4.95;;
20441;SDS011;10380;52.102;20.614;2022-07-22T03:29:39;8.07;;;4.68;;
20441;SDS011;10380;52.102;20.614;2022-07-22T03:32:06;7.30;;;4.50;;
20441;SDS011;10380;52.102;20.614;2022-07-22T03:34:33;10.13;;;5.57;;
20441;SDS011;10380;52.102;20.614;2022-07-22T03:37:07;9.15;;;5.43;;
20441;SDS011;10380;52.102;20.614;2022-07-22T03:39:34;11.13;;;5.68;;
20441;SDS011;10380;52.102;20.614;2022-07-22T03:42:01;9.13;;;5.30;;
20441;SDS011;10380;52.102;20.614;2022-07-22T03:44:28;7.78;;;5.53;;
20441;SDS011;10380;52.102;20.614;2022-07-22T03:46:55;8.93;;;4.85;;
20441;SDS011;10380;52.102;20.614;2022-07-22T03:49:22;7.80;;;5.45;;
20441;SDS011;10380;52.102;20.614;2022-07-22T03:51:49;9.85;;;5.90;;
20441;SDS011;10380;52.102;20.614;2022-07-22T03:54:18;9.57;;;4.85;;
20441;SDS011;10380;52.102;20.614;2022-07-22T03:56:45;12.45;;;5.10;;
20441;SDS011;10380;52.102;20.614;2022-07-22T03:59:12;13.05;;;5.60;;
20441;SDS011;10380;52.102;20.614;2022-07-22T04:01:39;11.30;;;5.35;;
20441;SDS011;10380;52.102;20.614;2022-07-22T04:04:08;9.35;;;6.05;;
20441;SDS011;10380;52.102;20.614;2022-07-22T04:06:35;11.05;;;5.60;;
20441;SDS011;10380;52.102;20.614;2022-07-22T04:09:02;9.45;;;5.68;;
20441;SDS011;10380;52.102;20.614;2022-07-22T04:11:29;8.07;;;5.60;;
20441;SDS011;10380;52.102;20.614;2022-07-22T04:13:57;11.13;;;5.47;;
20441;SDS011;10380;52.102;20.614;2022-07-22T04:16:25;9.25;;;5.07;;
20441;SDS011;10380;52.102;20.614;2022-07-22T04:18:52;5.55;;;4.80;;
20441;SDS011;10380;52.102;20.614;2022-07-22T04:21:19;14.40;;;5.00;;
20441;SDS011;10380;52.102;20.614;2022-07-22T04:23:46;6.95;;;5.03;;
20441;SDS011;10380;52.102;20.614;2022-07-22T04:26:13;9.25;;;5.72;;
20441;SDS011;10380;52.102;20.614;2022-07-22T04:28:40;13.25;;;5.53;;
20441;SDS011;10380;52.102;20.614;2022-07-22T04:31:07;11.32;;;6.05;;
20441;SDS011;10380;52.102;20.614;2022-07-22T04:33:35;10.27;;;5.22;;
20441;SDS011;10380;52.102;20.614;2022-07-22T04:36:02;10.82;;;5.90;;
20441;SDS011;10380;52.102;20.614;2022-07-22T04:38:30;9.73;;;4.97;;
20441;SDS011;10380;52.102;20.614;2022-07-22T04:40:56;7.57;;;5.85;;
20441;SDS011;10380;52.102;20.614;2022-07-22T04:43:24;11.20;;;4.55;;
20441;SDS011;10380;52.102;20.614;2022-07-22T04:45:51;12.32;;;5.75;;
20441;SDS011;10380;52.102;20.614;2022-07-22T04:48:17;9.45;;;5.43;;
20441;SDS011;10380;52.102;20.614;2022-07-22T04:50:45;10.88;;;4.90;;
20441;SDS011;10380;52.102;20.614;2022-07-22T04:53:11;13.82;;;5.78;;
20441;SDS011;10380;52.102;20.614;2022-07-22T04:55:39;15.73;;;7.32;;
20441;SDS011;10380;52.102;20.614;2022-07-22T04:58:07;12.70;;;5.38;;
20441;SDS011;10380;52.102;20.614;2022-07-22T05:00:41;8.82;;;4.60;;
20441;SDS011;10380;52.102;20.614;2022-07-22T05:03:08;9.95;;;4.38;;
20441;SDS011;10380;52.102;20.614;2022-07-22T05:05:35;8.52;;;5.10;;
20441;SDS011;10380;52.102;20.614;2022-07-22T05:08:02;7.70;;;4.80;;
20441;SDS011;10380;52.102;20.614;2022-07-22T05:10:29;8.20;;;4.25;;
